Time;durP1;ratioP1;P1;durP2;ratioP2;P2;SDS_P1;SDS_P2;PMS_P1;PMS_P2;Temp;Humidity;BMP_temperature;BMP_pressure;BME280_temperature;BME280_humidity;BME280_pressure;Samples;Min_cycle;Max_cycle;Signal;HPM_P1;HPM_P2
2023/09/19 00:02:21;;;;;;;16.10;13.80;;;;;;;19.62;85.14;99948.70;105959;1262;97121;-85
2023/09/19 00:05:09;;;;;;;16.70;13.20;;;;;;;19.59;85.44;99950.04;105914;1256;100101;-84
2023/09/19 00:07:58;;;;;;;15.10;13.40;;;;;;;19.55;85.40;99948.16;105924;1259;99157;-85
2023/09/19 00:10:44;;;;;;;16.40;13.90;;;;;;;19.53;85.61;99949.77;105912;1260;99106;-85
2023/09/19 00:13:30;;;;;;;16.20;13.30;;;;;;;19.51;85.51;99950.63;105911;1256;96696;-84
2023/09/19 00:16:18;;;;;;;16.00;13.30;;;;;;;19.48;85.56;99947.46;106041;1256;96633;-85
2023/09/19 00:19:08;;;;;;;14.70;13.10;;;;;;;19.45;85.71;99949.50;106023;1256;101397;-85
2023/09/19 00:21:54;;;;;;;17.80;13.80;;;;;;;19.43;85.64;99944.65;105811;1259;100395;-84
2023/09/19 00:24:40;;;;;;;20.90;13.70;;;;;;;19.41;85.76;99944.75;105863;1257;97805;-85
2023/09/19 00:27:27;;;;;;;18.40;13.00;;;;;;;19.38;85.83;99939.61;105991;1256;96601;-85
2023/09/19 00:30:16;;;;;;;14.90;13.40;;;;;;;19.36;86.25;99935.71;105977;1255;96610;-86
2023/09/19 00:33:05;;;;;;;17.50;13.50;;;;;;;19.34;86.43;99938.55;105892;1260;101345;-84
2023/09/19 00:35:52;;;;;;;16.90;13.60;;;;;;;19.32;86.41;99936.42;105945;1256;99191;-84
2023/09/19 00:38:38;;;;;;;19.80;14.70;;;;;;;19.31;86.89;99933.27;105851;1263;98911;-85
2023/09/19 00:41:24;;;;;;;18.40;14.10;;;;;;;19.29;86.67;99934.02;106013;1260;96668;-85
2023/09/19 00:44:11;;;;;;;16.70;12.90;;;;;;;19.28;86.87;99932.77;105772;1259;97233;-84
2023/09/19 00:46:57;;;;;;;17.90;14.10;;;;;;;19.27;87.17;99929.49;105919;1254;100110;-86
2023/09/19 00:49:52;;;;;;;14.70;12.90;;;;;;;19.26;87.28;99930.37;105994;1256;99146;-85
2023/09/19 00:52:38;;;;;;;17.30;14.20;;;;;;;19.25;87.31;99924.70;106053;1256;98477;-85
2023/09/19 00:55:27;;;;;;;18.30;14.90;;;;;;;19.24;87.44;99922.58;105998;1256;96521;-85
2023/09/19 00:58:13;;;;;;;17.80;14.20;;;;;;;19.23;87.75;99917.52;106090;1256;96614;-86
2023/09/19 01:00:59;;;;;;;19.70;14.40;;;;;;;19.21;87.77;99913.48;105945;1260;100079;-85
2023/09/19 01:03:46;;;;;;;19.40;15.40;;;;;;;19.19;87.77;99913.47;105970;1258;99218;-86
2023/09/19 01:06:31;;;;;;;17.20;13.80;;;;;;;19.18;88.01;99914.02;105591;1256;97820;-86
2023/09/19 01:09:18;;;;;;;17.40;14.40;;;;;;;19.17;88.22;99908.08;105706;1257;96694;-87
2023/09/19 01:12:08;;;;;;;21.30;15.40;;;;;;;19.15;88.35;99907.25;105978;1256;97138;-85
2023/09/19 01:15:04;;;;;;;24.50;14.70;;;;;;;19.13;88.47;99898.10;106010;1256;100070;-86
2023/09/19 01:18:02;;;;;;;19.90;14.20;;;;;;;19.10;88.48;99899.23;105898;1261;100723;-84
2023/09/19 01:21:09;;;;;;;17.40;15.50;;;;;;;19.09;88.69;99902.35;105992;1257;97788;-85
2023/09/19 01:24:35;;;;;;;20.30;15.60;;;;;;;19.08;88.70;99895.52;106204;1259;96507;-85
2023/09/19 01:27:59;;;;;;;15.50;13.80;;;;;;;19.05;88.83;99893.69;106158;1254;96715;-85
2023/09/19 01:30:47;;;;;;;20.20;14.90;;;;;;;19.02;89.01;99890.19;105933;1257;101747;-86
2023/09/19 01:34:01;;;;;;;20.30;14.30;;;;;;;19.00;89.24;99884.58;105801;1262;99305;-85
2023/09/19 01:36:46;;;;;;;17.00;14.60;;;;;;;18.96;89.28;99880.74;105999;1257;97904;-85
2023/09/19 01:39:33;;;;;;;21.10;16.00;;;;;;;18.95;89.52;99879.93;106003;1256;96653;-84
2023/09/19 01:42:35;;;;;;;24.00;14.60;;;;;;;18.95;89.47;99879.65;105823;1255;96602;-86
2023/09/19 01:45:33;;;;;;;20.00;15.40;;;;;;;18.93;89.52;99877.84;106121;1256;100040;-85
2023/09/19 01:48:42;;;;;;;19.20;15.40;;;;;;;18.91;89.77;99878.00;105723;1262;100122;-85
2023/09/19 01:51:37;;;;;;;17.40;14.80;;;;;;;18.86;89.85;99876.27;105988;1255;98717;-86
2023/09/19 01:54:45;;;;;;;20.40;15.00;;;;;;;18.79;90.14;99874.91;105844;1262;96706;-86
2023/09/19 01:57:40;;;;;;;17.10;15.30;;;;;;;18.74;90.50;99865.14;106135;1259;97151;-84
2023/09/19 02:00:31;;;;;;;21.90;14.60;;;;;;;18.72;90.78;99860.06;105857;1261;100068;-85
2023/09/19 02:03:18;;;;;;;20.70;14.50;;;;;;;18.72;90.74;99858.66;106133;1256;99241;-86
2023/09/19 02:06:05;;;;;;;18.90;14.60;;;;;;;18.72;90.81;99857.48;105807;1263;97966;-85
2023/09/19 02:08:50;;;;;;;19.50;15.80;;;;;;;18.72;90.92;99854.77;106113;1256;96599;-85
2023/09/19 02:11:36;;;;;;;19.00;14.80;;;;;;;18.73;90.77;99853.20;106017;1256;97170;-85
2023/09/19 02:14:23;;;;;;;20.40;14.90;;;;;;;18.72;91.00;99854.76;105989;1254;101374;-85
2023/09/19 02:17:11;;;;;;;21.30;15.30;;;;;;;18.72;90.78;99853.61;106004;1256;100546;-85
2023/09/19 02:19:58;;;;;;;19.00;15.10;;;;;;;18.71;91.06;99850.73;106107;1256;98558;-84
2023/09/19 02:22:44;;;;;;;20.80;15.60;;;;;;;18.70;90.94;99846.66;106139;1256;96674;-85
2023/09/19 02:25:30;;;;;;;19.90;15.30;;;;;;;18.68;91.02;99845.50;106152;1256;96846;-84
2023/09/19 02:28:16;;;;;;;19.00;15.60;;;;;;;18.66;91.04;99849.12;105971;1259;101896;-86
2023/09/19 02:31:01;;;;;;;18.60;15.90;;;;;;;18.64;91.00;99843.30;106007;1257;107790;-85
2023/09/19 02:33:47;;;;;;;20.80;14.80;;;;;;;18.63;91.10;99847.30;105922;1256;98454;-85
2023/09/19 02:36:33;;;;;;;21.00;15.40;;;;;;;18.61;91.16;99844.02;105695;1256;96696;-86
2023/09/19 02:39:19;;;;;;;19.40;15.70;;;;;;;18.60;91.15;99842.38;105806;1256;96738;-86
2023/09/19 02:42:05;;;;;;;20.20;15.70;;;;;;;18.58;91.02;99839.94;106168;1254;100582;-85
2023/09/19 02:44:51;;;;;;;18.90;15.70;;;;;;;18.58;91.42;99839.45;106206;1255;100129;-85
2023/09/19 02:47:36;;;;;;;17.80;15.20;;;;;;;18.56;91.38;99836.28;106044;1254;97799;-85
2023/09/19 02:50:22;;;;;;;19.60;15.80;;;;;;;18.55;91.25;99833.61;106045;1257;97277;-86
2023/09/19 02:53:07;;;;;;;19.20;14.40;;;;;;;18.53;91.36;99833.42;106013;1262;97112;-85
2023/09/19 02:55:53;;;;;;;19.00;15.10;;;;;;;18.50;91.54;99828.19;105866;1256;100978;-85
2023/09/19 02:58:39;;;;;;;23.30;15.60;;;;;;;18.46;91.49;99822.98;106066;1259;99658;-85
2023/09/19 03:01:26;;;;;;;19.80;15.90;;;;;;;18.43;91.50;99819.37;105797;1258;97737;-86
2023/09/19 03:04:12;;;;;;;18.10;15.30;;;;;;;18.40;91.79;99816.23;106086;1257;96830;-86
2023/09/19 03:07:01;;;;;;;18.60;15.30;;;;;;;18.39;91.60;99816.45;106020;1256;95978;-86
2023/09/19 03:09:47;;;;;;;20.00;15.40;;;;;;;18.38;91.84;99814.75;106037;1256;101323;-85
2023/09/19 03:12:33;;;;;;;20.70;15.10;;;;;;;18.37;91.55;99813.70;106237;1257;99204;-86
2023/09/19 03:15:19;;;;;;;20.70;16.50;;;;;;;18.36;91.46;99817.45;105984;1262;97826;-86
2023/09/19 03:18:05;;;;;;;16.90;14.60;;;;;;;18.33;91.40;99812.75;105924;1256;97105;-86
2023/09/19 03:20:56;;;;;;;18.00;15.10;;;;;;;18.32;91.41;99808.77;105893;1261;97183;-86
2023/09/19 03:23:44;;;;;;;22.00;15.90;;;;;;;18.28;91.50;99807.34;105715;1256;101499;-84
2023/09/19 03:26:33;;;;;;;22.00;16.20;;;;;;;18.25;91.67;99804.80;105974;1257;100478;-86
2023/09/19 03:29:19;;;;;;;20.80;15.90;;;;;;;18.24;91.69;99807.02;106035;1256;99490;-86
2023/09/19 03:32:05;;;;;;;18.80;16.10;;;;;;;18.23;91.90;99805.39;105829;1263;96720;-85
2023/09/19 03:34:52;;;;;;;21.90;15.30;;;;;;;18.22;91.76;99806.34;105983;1256;96502;-85
2023/09/19 03:37:38;;;;;;;17.00;15.00;;;;;;;18.20;91.71;99800.14;106085;1256;100183;-85
2023/09/19 03:40:25;;;;;;;17.10;14.80;;;;;;;18.17;91.68;99800.11;106005;1256;99194;-86
2023/09/19 03:43:11;;;;;;;20.40;16.90;;;;;;;18.14;91.56;99801.48;105900;1257;97816;-86
2023/09/19 03:45:57;;;;;;;20.20;16.10;;;;;;;18.11;91.69;99799.08;106113;1260;96610;-85
2023/09/19 03:48:43;;;;;;;21.60;16.30;;;;;;;18.09;91.62;99796.23;105920;1255;97131;-85
2023/09/19 03:51:29;;;;;;;18.30;15.70;;;;;;;18.07;91.71;99799.13;105869;1263;100206;-85
2023/09/19 03:54:16;;;;;;;19.10;16.10;;;;;;;18.06;91.88;99796.96;106071;1256;99322;-83
2023/09/19 03:57:03;;;;;;;20.00;15.10;;;;;;;18.05;92.01;99796.85;106011;1259;99203;-85
2023/09/19 03:59:48;;;;;;;20.70;15.80;;;;;;;18.05;92.08;99796.73;106117;1259;96642;-85
2023/09/19 04:02:34;;;;;;;20.30;16.90;;;;;;;18.05;92.35;99792.06;105969;1263;97127;-85
2023/09/19 04:05:20;;;;;;;18.60;15.80;;;;;;;18.04;92.15;99794.22;105918;1256;100082;-85
2023/09/19 04:08:06;;;;;;;20.50;16.00;;;;;;;18.00;92.24;99793.64;105973;1259;99258;-85
2023/09/19 04:10:52;;;;;;;20.90;16.90;;;;;;;18.00;92.04;99796.50;106088;1260;98546;-85
2023/09/19 04:13:38;;;;;;;23.30;15.60;;;;;;;18.00;92.23;99795.46;106162;1257;96702;-84
2023/09/19 04:16:24;;;;;;;19.10;16.20;;;;;;;17.98;92.20;99793.45;106095;1257;96854;-85
2023/09/19 04:19:10;;;;;;;20.70;16.80;;;;;;;17.96;92.19;99791.27;106012;1259;99978;-84
2023/09/19 04:21:55;;;;;;;18.70;16.10;;;;;;;17.93;92.05;99785.27;105941;1259;99122;-85
2023/09/19 04:24:41;;;;;;;20.90;16.00;;;;;;;17.89;92.02;99789.61;105799;1256;97798;-85
2023/09/19 04:27:27;;;;;;;19.30;15.50;;;;;;;17.87;92.13;99793.70;106031;1260;96532;-85
2023/09/19 04:30:14;;;;;;;18.10;15.50;;;;;;;17.83;92.18;99791.17;105839;1260;96874;-85
2023/09/19 04:33:01;;;;;;;18.70;15.60;;;;;;;17.80;92.35;99793.89;107848;1257;100146;-86
2023/09/19 04:35:50;;;;;;;22.00;16.50;;;;;;;17.78;92.58;99796.25;106186;1256;100111;-85
2023/09/19 04:38:36;;;;;;;26.10;17.00;;;;;;;17.75;92.75;99793.08;106197;1256;99073;-86
2023/09/19 04:41:22;;;;;;;19.10;16.50;;;;;;;17.74;92.70;99788.95;106056;1257;96680;-85
2023/09/19 04:44:08;;;;;;;21.30;16.80;;;;;;;17.73;92.71;99791.75;106035;1256;97115;-85
2023/09/19 04:46:54;;;;;;;18.50;15.50;;;;;;;17.74;93.10;99790.80;105906;1262;100148;-85
2023/09/19 04:49:39;;;;;;;21.30;17.10;;;;;;;17.74;93.31;99791.98;105907;1257;100885;-85
2023/09/19 04:52:25;;;;;;;24.00;17.60;;;;;;;17.75;93.39;99794.16;106010;1256;99097;-86
2023/09/19 04:55:17;;;;;;;22.60;17.40;;;;;;;17.78;93.49;99798.80;106048;1261;97007;-85
2023/09/19 04:58:03;;;;;;;24.00;16.60;;;;;;;17.80;93.76;99798.40;106195;1262;97115;-85
2023/09/19 05:00:51;;;;;;;21.20;16.20;;;;;;;17.84;93.81;99797.79;105995;1257;101295;-86
2023/09/19 05:03:37;;;;;;;21.30;17.30;;;;;;;17.87;94.14;99795.17;106264;1262;99378;-85
2023/09/19 05:06:22;;;;;;;25.80;18.60;;;;;;;17.91;94.31;99795.77;106070;1261;98113;-86
2023/09/19 05:09:08;;;;;;;24.60;18.30;;;;;;;17.96;94.45;99795.11;106017;1262;96670;-85
2023/09/19 05:11:54;;;;;;;21.80;17.90;;;;;;;18.00;94.99;99797.11;106092;1256;97673;-86
2023/09/19 05:14:40;;;;;;;25.80;19.50;;;;;;;18.06;94.93;99798.36;105771;1256;101398;-84
2023/09/19 05:17:26;;;;;;;24.30;18.00;;;;;;;18.11;95.21;99795.33;106059;1259;99619;-86
2023/09/19 05:20:14;;;;;;;20.40;17.50;;;;;;;18.15;95.41;99795.05;106108;1263;99050;-85
2023/09/19 05:23:12;;;;;;;20.40;16.90;;;;;;;18.18;95.39;99792.86;106156;1256;97304;-85
2023/09/19 05:25:59;;;;;;;23.70;18.10;;;;;;;18.21;95.67;99793.92;106051;1255;96527;-86
2023/09/19 05:28:47;;;;;;;20.20;16.00;;;;;;;18.24;95.69;99791.79;106034;1256;102458;-85
2023/09/19 05:31:36;;;;;;;18.10;16.10;;;;;;;18.28;95.87;99794.05;105788;1259;99282;-84
2023/09/19 05:34:21;;;;;;;20.30;16.10;;;;;;;18.31;95.93;99798.09;105931;1257;97941;-85
2023/09/19 05:37:08;;;;;;;19.90;16.70;;;;;;;18.33;96.09;99802.52;106022;1257;96770;-85
2023/09/19 05:39:54;;;;;;;19.70;15.70;;;;;;;18.36;96.29;99796.14;105985;1256;96705;-84
2023/09/19 05:42:39;;;;;;;18.70;15.30;;;;;;;18.40;96.55;99797.20;106005;1259;100080;-85
2023/09/19 05:45:25;;;;;;;21.70;16.90;;;;;;;18.45;96.54;99798.52;106116;1258;99179;-85
2023/09/19 05:48:13;;;;;;;19.70;15.90;;;;;;;18.52;96.48;99792.78;105856;1259;99617;-86
2023/09/19 05:51:01;;;;;;;18.40;16.10;;;;;;;18.59;96.53;99792.89;105990;1256;97827;-86
2023/09/19 05:53:48;;;;;;;20.20;15.80;;;;;;;18.66;96.71;99794.64;106103;1256;96474;-86
2023/09/19 05:56:33;;;;;;;17.80;15.70;;;;;;;18.74;96.39;99792.05;106043;1256;100928;-86
2023/09/19 05:59:19;;;;;;;19.90;15.80;;;;;;;18.82;96.09;99791.30;105972;1256;100432;-86
2023/09/19 06:02:06;;;;;;;19.20;16.20;;;;;;;18.89;95.77;99789.95;106221;1257;97834;-85
2023/09/19 06:04:52;;;;;;;19.60;15.40;;;;;;;18.97;95.74;99791.10;106109;1256;96669;-85
2023/09/19 06:07:38;;;;;;;17.00;15.00;;;;;;;19.05;95.49;99790.55;106349;1256;96484;-86
2023/09/19 06:10:25;;;;;;;23.60;15.60;;;;;;;19.13;95.23;99795.98;106255;1262;100067;-85
2023/09/19 06:13:11;;;;;;;19.30;15.80;;;;;;;19.20;94.98;99793.63;106385;1257;100454;-85
2023/09/19 06:15:56;;;;;;;19.10;16.40;;;;;;;19.29;94.86;99791.45;106643;1256;98519;-86
2023/09/19 06:18:42;;;;;;;18.30;15.80;;;;;;;19.37;94.15;99797.23;106596;1256;97913;-90
2023/09/19 06:21:28;;;;;;;23.70;16.30;;;;;;;19.44;94.18;99805.36;106566;1256;97048;-86
2023/09/19 06:24:14;;;;;;;25.40;17.20;;;;;;;19.50;94.01;99808.65;106427;1256;99981;-85
2023/09/19 06:27:01;;;;;;;20.60;16.20;;;;;;;19.56;93.86;99807.55;106185;1257;99745;-85
2023/09/19 06:29:46;;;;;;;24.10;15.70;;;;;;;19.62;93.62;99811.21;106228;1259;97841;-84
2023/09/19 06:32:32;;;;;;;18.40;16.30;;;;;;;19.68;93.48;99813.48;106392;1264;95815;-90
2023/09/19 06:35:18;;;;;;;20.10;16.40;;;;;;;19.73;93.15;99816.98;106608;1256;95849;-84
2023/09/19 06:38:05;;;;;;;21.80;16.20;;;;;;;19.78;92.95;99822.05;106248;1259;101723;-83
2023/09/19 06:40:51;;;;;;;23.60;16.60;;;;;;;19.84;92.46;99822.40;105979;1263;99206;-84
2023/09/19 06:43:36;;;;;;;19.10;16.20;;;;;;;19.90;92.55;99823.40;105961;1262;98879;-86
2023/09/19 06:46:23;;;;;;;20.00;15.90;;;;;;;19.95;92.34;99827.12;106344;1258;96617;-87
2023/09/19 06:49:10;;;;;;;26.10;16.30;;;;;;;19.99;92.08;99830.71;106526;1256;202920;-91
2023/09/19 06:51:57;;;;;;;18.20;16.30;;;;;;;20.04;91.91;99833.45;106776;1256;101374;-83
2023/09/19 06:54:43;;;;;;;21.40;16.40;;;;;;;20.08;91.98;99838.68;106837;1256;99249;-88
2023/09/19 06:57:30;;;;;;;21.30;16.00;;;;;;;20.14;92.14;99842.56;106729;1256;99085;-88
2023/09/19 07:00:21;;;;;;;19.50;16.70;;;;;;;20.18;92.02;99842.86;106705;1264;96710;-90
2023/09/19 07:03:11;;;;;;;;;;;;;;;20.22;91.77;99845.94;106663;1262;95828;-83
2023/09/19 07:05:58;;;;;;;17.40;15.40;;;;;;;20.24;91.94;99847.54;106373;1255;100107;-85
2023/09/19 07:08:45;;;;;;;20.30;15.20;;;;;;;20.27;91.67;99853.15;106148;1255;99391;-83
2023/09/19 07:11:31;;;;;;;20.10;15.70;;;;;;;20.27;91.36;99860.98;106193;1260;97810;-85
2023/09/19 07:14:16;;;;;;;17.60;15.70;;;;;;;20.29;91.61;99866.60;106186;1256;96703;-85
2023/09/19 07:17:03;;;;;;;21.60;16.80;;;;;;;20.30;91.65;99873.01;106278;1256;97150;-88
2023/09/19 07:19:50;;;;;;;20.90;16.00;;;;;;;20.32;91.28;99874.63;106284;1256;100442;-84
2023/09/19 07:22:38;;;;;;;19.10;16.00;;;;;;;20.32;91.24;99879.74;107324;1256;99185;-90
2023/09/19 07:25:30;;;;;;;18.80;15.40;;;;;;;20.28;90.84;99884.36;106281;1260;99497;-91
2023/09/19 07:28:17;;;;;;;19.50;16.10;;;;;;;20.22;91.04;99881.19;106957;1259;95832;-91
2023/09/19 07:31:07;;;;;;;17.00;15.10;;;;;;;20.19;91.04;99882.79;106927;1262;95890;-89
2023/09/19 07:33:53;;;;;;;18.70;15.30;;;;;;;20.14;91.34;99885.81;106247;1265;100102;-90
2023/09/19 07:36:39;;;;;;;23.10;15.50;;;;;;;20.11;91.83;99892.00;106649;1262;100891;-86
2023/09/19 07:39:25;;;;;;;16.70;14.70;;;;;;;20.10;92.14;99896.67;106780;1257;99071;-90
2023/09/19 07:42:17;;;;;;;16.20;14.50;;;;;;;20.06;92.17;99889.52;106741;1259;96509;-89
2023/09/19 07:45:03;;;;;;;21.20;15.20;;;;;;;20.00;92.37;99897.82;106782;1257;96666;-91
2023/09/19 07:47:52;;;;;;;19.10;15.10;;;;;;;19.95;92.42;99900.90;106890;1256;101369;-89
2023/09/19 07:50:39;;;;;;;19.30;14.90;;;;;;;19.91;92.55;99907.84;106999;1256;100592;-91
2023/09/19 07:53:34;;;;;;;17.30;13.90;;;;;;;19.86;92.95;99924.34;106761;1256;99188;-91
2023/09/19 07:56:23;;;;;;;21.10;15.30;;;;;;;19.82;93.54;99928.22;106263;1256;96613;-88
2023/09/19 07:59:11;;;;;;;23.30;15.90;;;;;;;19.82;94.82;99928.17;106804;1256;96168;-91
2023/09/19 08:01:57;;;;;;;19.40;14.30;;;;;;;19.75;95.17;99934.60;106543;1256;100093;-90
2023/09/19 08:04:45;;;;;;;17.80;13.60;;;;;;;19.69;95.60;99937.48;106034;1259;99965;-84
2023/09/19 08:07:31;;;;;;;19.10;14.80;;;;;;;19.64;96.28;99944.09;106153;1262;99448;-84
2023/09/19 08:10:19;;;;;;;19.20;14.50;;;;;;;19.59;96.92;99950.58;106020;1257;98961;-85
2023/09/19 08:13:05;;;;;;;22.00;15.50;;;;;;;19.51;97.52;99949.87;106205;1259;96415;-86
2023/09/19 08:15:54;;;;;;;21.30;15.50;;;;;;;19.49;98.02;99949.10;106848;1256;100685;-89
2023/09/19 08:18:40;;;;;;;21.90;16.00;;;;;;;19.47;98.47;99953.38;106667;1257;99186;-91
2023/09/19 08:21:29;;;;;;;17.60;15.60;;;;;;;19.40;98.92;99962.00;106369;1265;97770;-88
2023/09/19 08:24:15;;;;;;;27.00;17.10;;;;;;;19.34;99.28;99968.94;106660;1257;96610;-88
2023/09/19 08:27:04;;;;;;;19.80;16.10;;;;;;;19.31;99.77;99958.80;106622;1256;97186;-88
2023/09/19 08:29:51;;;;;;;23.30;15.70;;;;;;;19.30;99.91;99942.01;106074;1259;100170;-88
2023/09/19 08:32:37;;;;;;;21.10;15.60;;;;;;;19.30;100.00;99936.20;106122;1256;99260;-86
2023/09/19 08:35:23;;;;;;;20.60;15.70;;;;;;;19.29;100.00;99934.73;106594;1255;97514;-89
2023/09/19 08:41:44;;;;;;;21.60;15.20;;;;;;;19.32;100.00;99931.64;107910;1257;95158;-88
2023/09/19 08:44:37;;;;;;;29.30;22.90;;;;;;;19.34;100.00;99936.19;106789;1261;102641;-91
2023/09/19 08:47:35;;;;;;;23.20;18.60;;;;;;;19.33;100.00;99939.64;106732;1259;101152;-87
2023/09/19 08:50:28;;;;;;;23.80;19.00;;;;;;;19.32;100.00;99940.12;106469;1257;97915;-89
2023/09/19 08:53:23;;;;;;;20.50;16.10;;;;;;;19.31;100.00;99942.39;106518;1259;96626;-89
2023/09/19 08:56:11;;;;;;;21.60;16.10;;;;;;;19.33;100.00;99941.27;106675;1258;96788;-89
2023/09/19 08:59:03;;;;;;;21.60;14.30;;;;;;;19.36;100.00;99940.40;106758;1262;100143;-90
2023/09/19 09:01:53;;;;;;;19.60;15.20;;;;;;;19.39;100.00;99937.66;106540;1259;100468;-87
2023/09/19 09:04:54;;;;;;;17.40;13.80;;;;;;;19.42;100.00;99945.11;106245;1259;97801;-91
2023/09/19 09:07:41;;;;;;;17.00;14.60;;;;;;;19.44;100.00;99945.47;107036;1263;94507;-86
2023/09/19 09:10:27;;;;;;;19.60;16.10;;;;;;;19.46;100.00;99946.67;105845;1259;96556;-85
2023/09/19 09:13:13;;;;;;;17.40;13.40;;;;;;;19.47;100.00;99947.55;106635;1262;100871;-87
2023/09/19 09:15:59;;;;;;;19.10;14.30;;;;;;;19.48;100.00;99948.59;106188;1263;99177;-85
2023/09/19 09:18:46;;;;;;;15.90;13.70;;;;;;;19.49;100.00;99952.17;105931;1259;100060;-85
2023/09/19 09:21:36;;;;;;;17.90;15.20;;;;;;;19.49;100.00;99953.70;105791;1260;96632;-85
2023/09/19 09:24:30;;;;;;;21.60;16.90;;;;;;;19.51;100.00;99955.34;105874;1259;96814;-85
2023/09/19 09:27:16;;;;;;;19.80;14.60;;;;;;;19.51;100.00;99952.74;108138;1258;100056;-86
2023/09/19 09:30:03;;;;;;;16.30;13.60;;;;;;;19.50;100.00;99948.02;108185;1259;99027;-86
2023/09/19 09:33:08;;;;;;;15.70;13.40;;;;;;;19.52;100.00;99946.23;108077;1259;97766;-87
2023/09/19 09:36:00;;;;;;;13.70;12.10;;;;;;;19.57;100.00;99944.81;106332;1259;96615;-86
2023/09/19 09:38:48;;;;;;;13.90;12.10;;;;;;;19.60;100.00;99945.04;106051;1262;97140;-86
2023/09/19 09:41:39;;;;;;;15.20;11.70;;;;;;;19.61;100.00;99945.15;105912;1259;101377;-85
2023/09/19 09:44:24;;;;;;;13.20;11.00;;;;;;;19.62;100.00;99946.85;105926;1262;99221;-85
2023/09/19 09:47:29;;;;;;;15.60;11.60;;;;;;;19.66;100.00;99946.82;105896;1259;97997;-86
2023/09/19 09:50:28;;;;;;;13.60;10.30;;;;;;;19.69;100.00;99953.42;105769;1259;96614;-87
2023/09/19 09:53:27;;;;;;;11.10;9.80;;;;;;;19.73;100.00;99953.48;106021;1259;96608;-84
2023/09/19 09:56:14;;;;;;;13.60;10.80;;;;;;;19.77;100.00;99952.16;105961;1265;100049;-87
2023/09/19 09:58:59;;;;;;;17.20;12.80;;;;;;;19.81;100.00;99955.40;106033;1260;99500;-86
2023/09/19 10:01:53;;;;;;;15.80;11.30;;;;;;;19.85;100.00;99950.48;105918;1259;97721;-86
2023/09/19 10:04:51;;;;;;;11.60;10.10;;;;;;;19.91;100.00;99951.17;105991;1265;96701;-86
2023/09/19 10:07:41;;;;;;;12.30;10.00;;;;;;;19.97;100.00;99959.35;105855;1259;97138;-87
2023/09/19 10:13:30;;;;;;;10.50;8.10;;;;;;;19.98;100.00;99972.08;108209;1259;100402;-88
2023/09/19 10:16:19;;;;;;;13.10;9.40;;;;;;;19.96;100.00;99975.33;108191;1259;97800;-84
2023/09/19 10:19:11;;;;;;;11.60;8.50;;;;;;;19.96;100.00;99976.09;106366;1265;96618;-86
2023/09/19 10:22:00;;;;;;;12.30;9.10;;;;;;;19.95;100.00;99981.20;105835;1262;97141;-86
2023/09/19 10:24:49;;;;;;;11.30;9.30;;;;;;;19.95;100.00;99980.81;105854;1264;101333;-86
2023/09/19 10:27:43;;;;;;;11.90;8.10;;;;;;;19.94;100.00;99983.75;106130;1265;99652;-87
2023/09/19 10:30:30;;;;;;;11.20;8.80;;;;;;;19.93;100.00;99983.64;106027;1265;98820;-87
2023/09/19 10:33:22;;;;;;;10.50;8.50;;;;;;;19.94;100.00;99983.10;105971;1263;96591;-87
2023/09/19 10:36:11;;;;;;;10.30;7.70;;;;;;;19.96;100.00;99982.90;105951;1258;96684;-87
2023/09/19 10:39:02;;;;;;;12.00;8.80;;;;;;;19.97;100.00;99986.87;105841;1258;100010;-87
2023/09/19 10:41:53;;;;;;;14.30;8.70;;;;;;;20.01;100.00;99986.34;105931;1260;100957;-86
2023/09/19 10:44:43;;;;;;;11.70;8.90;;;;;;;20.12;100.00;99988.80;106019;1262;97794;-86
2023/09/19 10:47:30;;;;;;;10.80;8.40;;;;;;;20.22;100.00;99992.25;105814;1264;97198;-87
2023/09/19 10:50:24;;;;;;;13.30;8.80;;;;;;;20.28;100.00;99988.80;105887;1265;96506;-85
2023/09/19 10:53:10;;;;;;;12.40;8.90;;;;;;;20.30;100.00;99994.63;105989;1259;100103;-86
2023/09/19 10:55:59;;;;;;;13.60;9.30;;;;;;;20.34;100.00;99994.39;105827;1259;99269;-85
2023/09/19 10:58:45;;;;;;;12.20;8.90;;;;;;;20.42;100.00;99990.19;105995;1262;97742;-85
2023/09/19 11:01:52;;;;;;;9.10;7.50;;;;;;;20.46;100.00;99994.45;105908;1259;96618;-84
2023/09/19 11:04:38;;;;;;;12.00;8.30;;;;;;;20.45;100.00;99997.48;105941;1263;96607;-85
2023/09/19 11:07:26;;;;;;;12.10;7.60;;;;;;;20.44;100.00;99995.70;106082;1259;100022;-86
2023/09/19 11:10:48;;;;;;;13.70;8.70;;;;;;;20.45;100.00;99992.59;106237;1259;99256;-86
2023/09/19 11:13:36;;;;;;;11.20;7.80;;;;;;;20.45;100.00;99994.49;105931;1259;97855;-86
2023/09/19 11:16:26;;;;;;;12.00;8.20;;;;;;;20.44;100.00;99998.03;105857;1262;96721;-84
2023/09/19 11:19:12;;;;;;;9.40;7.30;;;;;;;20.45;100.00;99998.25;106074;1260;97049;-85
2023/09/19 11:21:58;;;;;;;10.70;8.30;;;;;;;20.47;100.00;99995.69;105901;1260;100113;-85
2023/09/19 11:24:44;;;;;;;10.50;8.40;;;;;;;20.51;100.00;99997.77;105988;1263;99987;-85
2023/09/19 11:27:29;;;;;;;14.30;8.30;;;;;;;20.53;100.00;100003.13;105982;1260;97859;-85
2023/09/19 11:30:30;;;;;;;10.20;7.60;;;;;;;20.55;100.00;100007.81;106036;1263;96573;-85
2023/09/19 11:33:33;;;;;;;11.40;8.30;;;;;;;20.60;100.00;100008.92;106058;1263;98027;-86
2023/09/19 11:36:36;;;;;;;9.60;8.50;;;;;;;20.61;100.00;100013.94;105944;1259;101350;-85
2023/09/19 11:39:26;;;;;;;12.00;7.90;;;;;;;20.59;100.00;100010.00;105903;1259;99181;-85
2023/09/19 11:42:41;;;;;;;12.80;8.50;;;;;;;20.61;100.00;100009.20;105915;1259;99024;-84
2023/09/19 11:45:57;;;;;;;13.20;8.70;;;;;;;20.63;100.00;100013.56;105947;1262;96514;-84
2023/09/19 11:48:47;;;;;;;11.50;8.80;;;;;;;20.68;100.00;100016.02;106036;1262;96503;-85
2023/09/19 11:51:42;;;;;;;13.70;9.60;;;;;;;20.72;100.00;100016.48;105936;1259;101857;-86
2023/09/19 11:54:31;;;;;;;11.00;8.30;;;;;;;20.74;100.00;100020.52;105772;1259;100411;-88
2023/09/19 11:57:21;;;;;;;11.50;8.50;;;;;;;20.77;100.00;100025.15;105901;1259;98970;-88
2023/09/19 12:00:10;;;;;;;11.70;9.60;;;;;;;20.77;100.00;100026.73;105900;1262;96735;-85
2023/09/19 12:03:09;;;;;;;12.40;9.40;;;;;;;20.78;100.00;100026.73;105871;1259;96607;-85
2023/09/19 12:05:55;;;;;;;9.20;8.30;;;;;;;20.79;100.00;100024.00;105926;1263;101890;-85
2023/09/19 12:08:43;;;;;;;10.90;8.70;;;;;;;20.81;100.00;100025.55;106009;1262;99162;-84
2023/09/19 12:11:33;;;;;;;13.80;9.10;;;;;;;20.83;100.00;100031.15;106732;1264;97854;-86
2023/09/19 12:14:26;;;;;;;14.90;9.60;;;;;;;20.87;100.00;100030.45;105949;1259;96625;-86
2023/09/19 12:17:13;;;;;;;13.30;9.30;;;;;;;20.90;100.00;100023.45;106166;1259;96551;-86
2023/09/19 12:19:58;;;;;;;11.00;8.60;;;;;;;20.94;100.00;100027.98;106205;1257;100087;-86
2023/09/19 12:22:46;;;;;;;9.40;8.00;;;;;;;20.96;100.00;100029.50;106073;1259;99328;-86
2023/09/19 12:25:47;;;;;;;13.10;8.30;;;;;;;20.96;100.00;100024.65;105945;1264;98704;-87
2023/09/19 12:28:42;;;;;;;9.50;8.30;;;;;;;20.94;100.00;100025.46;106004;1265;96621;-85
2023/09/19 12:31:27;;;;;;;12.50;7.80;;;;;;;20.92;100.00;100027.60;105899;1265;96705;-86
2023/09/19 12:34:19;;;;;;;9.40;8.20;;;;;;;20.92;100.00;100033.30;106082;1262;101270;-86
2023/09/19 12:37:20;;;;;;;11.90;7.80;;;;;;;20.92;100.00;100024.97;105955;1262;100417;-86
2023/09/19 12:40:18;;;;;;;;;;;;;;;20.97;100.00;100021.23;105895;1259;97813;-84
2023/09/19 12:43:04;;;;;;;10.70;7.90;;;;;;;20.99;100.00;100020.59;105954;1262;96381;-86
2023/09/19 12:45:53;;;;;;;10.40;8.00;;;;;;;21.04;100.00;100022.04;106123;1262;97062;-86
2023/09/19 12:48:43;;;;;;;11.00;7.90;;;;;;;21.12;100.00;100027.51;105914;1259;100083;-86
2023/09/19 12:51:36;;;;;;;10.70;6.90;;;;;;;21.17;100.00;100033.14;105816;1261;99743;-86
2023/09/19 12:54:22;;;;;;;10.10;7.00;;;;;;;21.19;100.00;100034.67;105845;1265;97813;-85